Time;durP1;ratioP1;P1;durP2;ratioP2;P2;SDS_P1;SDS_P2;PMS_P1;PMS_P2;Temp;Humidity;BMP_temperature;BMP_pressure;BME280_temperature;BME280_humidity;BME280_pressure;Samples;Min_cycle;Max_cycle;Signal;HPM_P1;HPM_P2
2021/10/03 00:00:21;;;;;;;2.50;2.30;;;20.50;97.00;;;;;;4935924;28;20450;-87
2021/10/03 00:02:50;;;;;;;2.40;2.20;;;20.40;97.00;;;;;;4977154;28;20470;-87
2021/10/03 00:05:19;;;;;;;2.30;2.10;;;20.50;97.00;;;;;;4956209;28;20450;-84
2021/10/03 00:07:48;;;;;;;3.00;2.23;;;20.50;97.00;;;;;;4958167;28;20451;-85
2021/10/03 00:10:18;;;;;;;2.40;2.20;;;20.50;96.90;;;;;;4963593;28;20494;-88
2021/10/03 00:12:45;;;;;;;3.73;2.63;;;20.50;96.80;;;;;;4940519;28;20470;-86
2021/10/03 00:15:13;;;;;;;3.07;2.77;;;20.50;96.90;;;;;;4937723;28;20454;-86
2021/10/03 00:17:40;;;;;;;3.73;2.50;;;20.50;96.80;;;;;;4955269;28;20501;-85
2021/10/03 00:20:10;;;;;;;2.90;2.70;;;20.50;96.90;;;;;;4937899;28;20995;-84
2021/10/03 00:22:38;;;;;;;4.70;2.70;;;20.50;96.80;;;;;;4938057;28;20470;-85
2021/10/03 00:25:13;;;;;;;2.80;2.60;;;20.50;96.90;;;;;;4953305;28;20526;-88
2021/10/03 00:27:45;;;;;;;3.10;2.37;;;20.50;96.90;;;;;;4855330;28;20492;-85
2021/10/03 00:30:15;;;;;;;4.37;3.10;;;20.40;96.80;;;;;;4952786;28;20590;-85
2021/10/03 00:32:43;;;;;;;2.57;2.37;;;20.40;96.80;;;;;;4950228;28;20543;-85
2021/10/03 00:35:13;;;;;;;3.60;2.80;;;20.40;96.80;;;;;;4969698;28;20465;-85
2021/10/03 00:37:42;;;;;;;3.77;2.33;;;20.40;96.80;;;;;;4952676;28;20472;-84
2021/10/03 00:40:10;;;;;;;2.97;2.63;;;20.40;96.90;;;;;;4947798;28;20539;-86
2021/10/03 00:42:40;;;;;;;2.93;2.70;;;20.40;96.60;;;;;;4952592;28;20459;-85
2021/10/03 00:45:10;;;;;;;2.43;2.17;;;20.40;96.80;;;;;;4947463;28;20447;-86
2021/10/03 00:47:43;;;;;;;2.40;2.20;;;20.40;96.50;;;;;;4965935;28;20575;-84
2021/10/03 00:50:13;;;;;;;2.40;2.20;;;20.30;96.40;;;;;;4965276;28;20520;-86
2021/10/03 00:52:46;;;;;;;4.50;3.10;;;20.40;96.30;;;;;;4949879;28;20467;-84
2021/10/03 00:55:18;;;;;;;2.80;2.53;;;20.30;96.30;;;;;;4934810;28;20903;-84
2021/10/03 00:57:49;;;;;;;4.50;2.50;;;20.30;96.30;;;;;;4950427;28;20489;-85
2021/10/03 01:00:20;;;;;;;3.30;3.00;;;20.40;96.20;;;;;;4933579;28;20487;-85
2021/10/03 01:02:47;;;;;;;2.57;2.37;;;20.40;96.00;;;;;;4969583;28;20519;-86
2021/10/03 01:05:18;;;;;;;3.20;2.43;;;20.30;96.00;;;;;;4949478;28;20469;-86
2021/10/03 01:07:46;;;;;;;2.40;2.20;;;20.30;96.30;;;;;;4959308;28;20503;-86
2021/10/03 01:10:25;;;;;;;3.20;2.13;;;20.30;96.10;;;;;;4983999;28;20478;-86
2021/10/03 01:13:02;;;;;;;4.37;2.70;;;20.30;96.30;;;;;;4966258;28;20533;-86
2021/10/03 01:15:33;;;;;;;2.60;2.40;;;20.40;96.20;;;;;;4986026;28;20470;-86
2021/10/03 01:18:00;;;;;;;2.30;2.10;;;20.30;96.20;;;;;;4963975;28;20493;-85
2021/10/03 01:20:31;;;;;;;2.70;2.50;;;20.30;96.40;;;;;;4956477;28;20939;-85
2021/10/03 01:23:03;;;;;;;3.80;2.43;;;20.30;96.50;;;;;;4951027;28;20465;-84
2021/10/03 01:25:41;;;;;;;2.00;1.80;;;20.20;96.70;;;;;;4952305;28;20489;-85
2021/10/03 01:28:09;;;;;;;6.03;1.73;;;20.20;96.70;;;;;;4950341;28;21312;-86
2021/10/03 01:30:39;;;;;;;3.43;2.73;;;20.30;96.80;;;;;;4954222;28;20567;-84
2021/10/03 01:33:06;;;;;;;2.40;2.20;;;20.20;96.60;;;;;;4954942;28;20560;-88
2021/10/03 01:35:36;;;;;;;3.27;2.43;;;20.20;96.80;;;;;;4979344;28;20471;-86
2021/10/03 01:38:04;;;;;;;2.90;2.33;;;20.10;96.80;;;;;;4960763;28;20482;-86
2021/10/03 01:40:31;;;;;;;2.90;2.60;;;20.20;96.80;;;;;;4953122;28;21788;-85
2021/10/03 01:43:04;;;;;;;3.23;1.93;;;20.10;96.80;;;;;;4972332;28;20450;-86
2021/10/03 01:45:32;;;;;;;3.90;2.27;;;20.10;96.60;;;;;;4945642;28;20455;-86
2021/10/03 01:48:15;;;;;;;2.37;2.17;;;20.20;96.60;;;;;;4950999;28;21643;-85
2021/10/03 01:50:55;;;;;;;1.90;1.80;;;20.10;96.60;;;;;;4972334;28;22032;-86
2021/10/03 01:53:26;;;;;;;2.40;2.20;;;20.10;96.70;;;;;;4947565;28;20469;-85
2021/10/03 01:55:55;;;;;;;2.57;2.20;;;20.10;96.80;;;;;;4972416;28;20510;-87
2021/10/03 01:58:30;;;;;;;2.40;2.20;;;20.10;96.90;;;;;;4967771;28;20541;-87
2021/10/03 02:01:05;;;;;;;3.63;1.83;;;20.00;96.90;;;;;;4982985;28;20470;-88
2021/10/03 02:03:33;;;;;;;2.10;1.90;;;20.00;97.10;;;;;;4983859;28;20530;-86
2021/10/03 02:06:00;;;;;;;2.70;2.50;;;19.90;97.20;;;;;;4962256;28;20457;-87
2021/10/03 02:08:27;;;;;;;2.40;1.97;;;19.90;97.60;;;;;;4957740;28;20495;-86
2021/10/03 02:10:53;;;;;;;2.10;1.97;;;19.90;97.40;;;;;;4963972;28;20516;-86
2021/10/03 02:13:24;;;;;;;1.90;1.80;;;19.90;97.40;;;;;;4951617;28;20442;-85
2021/10/03 02:15:51;;;;;;;3.23;1.90;;;19.80;97.60;;;;;;4959503;28;20479;-86
2021/10/03 02:18:21;;;;;;;3.37;2.47;;;19.70;97.80;;;;;;4950500;28;20507;-85
2021/10/03 02:20:56;;;;;;;2.17;1.97;;;19.80;97.90;;;;;;4949952;28;20477;-87
2021/10/03 02:23:25;;;;;;;3.53;2.53;;;19.80;97.90;;;;;;4952195;28;20467;-86
2021/10/03 02:25:52;;;;;;;2.50;2.30;;;19.70;98.00;;;;;;4962772;28;20499;-86
2021/10/03 02:28:23;;;;;;;3.23;2.27;;;19.70;98.20;;;;;;4952644;28;20558;-85
2021/10/03 02:30:55;;;;;;;6.83;2.50;;;19.70;98.20;;;;;;4946090;28;20573;-85
2021/10/03 02:33:22;;;;;;;2.97;2.77;;;19.60;98.60;;;;;;4952075;28;20447;-87
2021/10/03 02:35:52;;;;;;;3.50;2.57;;;19.60;98.40;;;;;;4947013;28;20461;-86
2021/10/03 02:38:24;;;;;;;2.30;2.10;;;19.60;98.30;;;;;;4968017;28;21304;-85
2021/10/03 02:40:52;;;;;;;2.10;1.90;;;19.50;98.30;;;;;;4974434;28;20470;-85
2021/10/03 02:43:23;;;;;;;3.13;2.37;;;19.50;98.60;;;;;;4947991;28;20840;-86
2021/10/03 02:45:51;;;;;;;2.70;2.50;;;19.60;98.10;;;;;;4955481;28;20443;-85
2021/10/03 02:48:21;;;;;;;2.80;2.50;;;19.70;98.10;;;;;;4956281;28;20882;-87
2021/10/03 02:50:49;;;;;;;3.03;2.73;;;19.70;97.80;;;;;;4956582;28;20502;-87
2021/10/03 02:53:18;;;;;;;2.80;2.60;;;19.60;97.90;;;;;;4971517;28;21130;-86
2021/10/03 02:55:45;;;;;;;3.73;2.90;;;19.60;97.80;;;;;;4956392;28;20525;-87
2021/10/03 02:58:12;;;;;;;6.83;3.03;;;19.60;97.80;;;;;;4957062;28;20547;-87
2021/10/03 03:00:41;;;;;;;3.70;2.67;;;19.70;97.60;;;;;;4972834;28;20532;-86
2021/10/03 03:03:08;;;;;;;3.30;2.70;;;19.60;97.70;;;;;;4971920;28;20484;-85
2021/10/03 03:05:35;;;;;;;3.40;2.93;;;19.60;97.70;;;;;;4959472;28;20478;-84
2021/10/03 03:08:04;;;;;;;3.30;2.90;;;19.60;97.60;;;;;;4959454;28;21137;-87
2021/10/03 03:10:34;;;;;;;3.43;2.70;;;19.60;97.40;;;;;;4956225;28;20509;-87
2021/10/03 03:13:02;;;;;;;8.83;3.53;;;19.60;97.40;;;;;;4963104;28;20439;-86
2021/10/03 03:15:29;;;;;;;3.33;3.03;;;19.80;97.10;;;;;;4963007;28;20459;-86
2021/10/03 03:17:58;;;;;;;3.83;3.40;;;19.80;97.00;;;;;;4947538;28;20542;-87
2021/10/03 03:20:25;;;;;;;3.63;3.27;;;19.70;97.00;;;;;;4953793;28;20471;-87
2021/10/03 03:22:52;;;;;;;4.77;4.27;;;19.80;96.80;;;;;;4970169;28;20450;-85
2021/10/03 03:25:19;;;;;;;2.63;2.43;;;19.80;96.60;;;;;;4969535;28;20447;-87
2021/10/03 03:27:47;;;;;;;3.40;3.10;;;19.90;96.30;;;;;;4968341;28;20455;-87
2021/10/03 03:30:15;;;;;;;3.33;3.03;;;20.00;96.10;;;;;;4970441;28;20482;-86
2021/10/03 03:32:43;;;;;;;8.27;4.27;;;20.00;95.90;;;;;;4953653;28;20459;-86
2021/10/03 03:35:12;;;;;;;4.27;3.87;;;20.10;95.60;;;;;;4955627;28;20579;-84
2021/10/03 03:37:41;;;;;;;5.90;4.07;;;20.10;95.50;;;;;;4954743;28;20481;-84
2021/10/03 03:40:11;;;;;;;4.77;3.23;;;20.20;95.30;;;;;;4971782;28;20561;-85
2021/10/03 03:42:40;;;;;;;5.73;4.17;;;20.10;95.20;;;;;;4957378;28;20466;-86
2021/10/03 03:45:12;;;;;;;4.30;3.87;;;20.20;94.90;;;;;;4976440;28;20478;-84
2021/10/03 03:47:40;;;;;;;5.20;3.73;;;20.40;94.70;;;;;;4973835;28;20447;-88
2021/10/03 03:50:12;;;;;;;4.30;3.90;;;20.40;94.40;;;;;;4965360;28;20490;-85
2021/10/03 03:52:45;;;;;;;4.80;3.90;;;20.40;94.20;;;;;;4971244;28;20463;-85
2021/10/03 03:55:12;;;;;;;4.63;3.80;;;20.50;94.00;;;;;;4960357;28;20458;-85
2021/10/03 03:57:39;;;;;;;4.00;3.70;;;20.50;94.00;;;;;;4974855;28;20557;-86
2021/10/03 04:00:10;;;;;;;5.57;4.03;;;20.60;94.00;;;;;;4959234;28;20482;-87
2021/10/03 04:02:39;;;;;;;5.20;3.97;;;20.60;93.60;;;;;;4973198;28;20454;-86
2021/10/03 04:05:08;;;;;;;4.07;3.63;;;20.70;93.40;;;;;;4957788;28;20459;-85
2021/10/03 04:07:34;;;;;;;3.30;3.00;;;20.70;93.40;;;;;;4975036;28;20468;-86
2021/10/03 04:10:02;;;;;;;4.83;4.37;;;20.70;93.10;;;;;;4956994;28;20475;-85
2021/10/03 04:12:29;;;;;;;6.07;4.20;;;20.80;92.90;;;;;;4954395;28;20459;-85
2021/10/03 04:14:56;;;;;;;4.57;3.70;;;20.80;93.10;;;;;;4957755;28;20442;-86
2021/10/03 04:17:23;;;;;;;3.97;3.47;;;20.80;92.90;;;;;;4960614;28;20478;-84
2021/10/03 04:19:50;;;;;;;7.83;5.57;;;20.80;92.90;;;;;;4942921;28;20466;-86
2021/10/03 04:22:17;;;;;;;4.50;3.53;;;20.90;92.70;;;;;;4973868;28;20467;-86
2021/10/03 04:24:43;;;;;;;5.57;3.23;;;20.90;92.70;;;;;;4956287;28;20554;-87
2021/10/03 04:27:11;;;;;;;6.60;3.80;;;20.80;92.70;;;;;;4944400;28;20466;-87
2021/10/03 04:29:38;;;;;;;5.30;3.67;;;21.00;92.50;;;;;;4955751;28;20638;-86
2021/10/03 04:32:05;;;;;;;3.97;3.67;;;21.00;92.30;;;;;;4938221;28;20457;-88
2021/10/03 04:34:32;;;;;;;4.43;3.50;;;21.10;92.10;;;;;;4939005;28;20497;-85
2021/10/03 04:36:59;;;;;;;5.40;4.30;;;21.20;92.20;;;;;;4958403;28;20483;-87
2021/10/03 04:39:26;;;;;;;4.47;3.80;;;21.20;92.20;;;;;;4937255;28;21107;-87
2021/10/03 04:41:54;;;;;;;10.50;3.97;;;;;;;;;;4937922;28;20458;-87
2021/10/03 04:44:23;;;;;;;5.03;3.60;;;21.10;92.20;;;;;;4955502;28;20454;-86
2021/10/03 04:46:50;;;;;;;6.93;4.17;;;21.60;93.90;;;;;;4954881;28;20455;-86
2021/10/03 04:49:17;;;;;;;4.30;3.90;;;21.20;92.50;;;;;;4939216;28;20470;-86
2021/10/03 04:51:44;;;;;;;6.20;4.73;;;21.10;94.90;;;;;;4954792;28;20999;-86
2021/10/03 04:54:11;;;;;;;5.60;3.77;;;21.30;96.20;;;;;;4955015;28;20459;-86
2021/10/03 04:56:38;;;;;;;5.30;3.73;;;21.10;95.00;;;;;;4954486;28;20459;-85
2021/10/03 04:59:04;;;;;;;5.00;3.43;;;21.40;93.90;;;;;;4957234;28;20487;-86
2021/10/03 05:01:31;;;;;;;6.60;4.13;;;21.30;94.20;;;;;;4958104;28;21733;-85
2021/10/03 05:03:58;;;;;;;4.63;3.33;;;21.30;94.80;;;;;;4956593;28;20508;-86
2021/10/03 05:06:26;;;;;;;3.53;3.23;;;21.30;94.80;;;;;;4953356;28;20463;-87
2021/10/03 05:08:53;;;;;;;4.20;3.67;;;21.50;94.70;;;;;;4947905;28;20523;-86
2021/10/03 05:11:20;;;;;;;4.60;4.20;;;21.40;95.20;;;;;;4951273;28;20552;-86
2021/10/03 05:13:47;;;;;;;5.47;4.90;;;21.10;96.00;;;;;;4953837;28;20511;-87
2021/10/03 05:16:14;;;;;;;4.73;4.33;;;21.20;96.40;;;;;;4951781;28;20946;-88
2021/10/03 05:18:41;;;;;;;3.10;2.70;;;21.30;92.50;;;;;;4942144;28;20579;-85
2021/10/03 05:21:09;;;;;;;6.00;3.97;;;21.30;92.50;;;;;;4930187;28;20478;-85
2021/10/03 05:23:36;;;;;;;3.73;3.33;;;21.30;92.40;;;;;;4932030;28;20450;-85
2021/10/03 05:26:03;;;;;;;4.63;3.83;;;21.40;92.40;;;;;;4931066;28;20469;-87
2021/10/03 05:28:30;;;;;;;9.53;4.80;;;21.30;92.30;;;;;;4925580;28;20473;-84
2021/10/03 05:30:57;;;;;;;3.90;3.60;;;21.30;92.40;;;;;;4935406;28;20512;-85
2021/10/03 05:33:24;;;;;;;6.40;4.70;;;21.30;92.40;;;;;;4934671;28;20523;-84
2021/10/03 05:35:50;;;;;;;3.80;3.50;;;21.30;92.40;;;;;;4927767;28;20909;-85
2021/10/03 05:38:17;;;;;;;4.10;3.70;;;21.30;92.50;;;;;;4930743;28;20817;-85
2021/10/03 05:40:44;;;;;;;4.80;4.10;;;21.30;92.40;;;;;;4589182;28;10000044;-87
2021/10/03 05:43:15;;;;;;;4.10;3.70;;;21.40;92.50;;;;;;4931202;28;20466;-85
2021/10/03 05:45:42;;;;;;;4.83;4.30;;;21.30;92.50;;;;;;4920666;28;20463;-84
2021/10/03 05:48:09;;;;;;;5.73;3.73;;;21.20;92.70;;;;;;4929347;28;20526;-82
2021/10/03 05:50:36;;;;;;;3.97;3.30;;;21.20;92.60;;;;;;4927366;28;21000;-86
2021/10/03 05:53:04;;;;;;;5.10;3.83;;;21.20;92.70;;;;;;4928779;28;20451;-85
2021/10/03 05:55:31;;;;;;;3.43;3.03;;;21.30;92.60;;;;;;4921540;28;20474;-85
2021/10/03 05:57:57;;;;;;;5.73;3.40;;;21.30;92.70;;;;;;4934351;28;20459;-88
2021/10/03 06:00:28;;;;;;;4.33;3.93;;;21.30;92.60;;;;;;4942706;28;20474;-85
2021/10/03 06:02:55;;;;;;;5.70;4.10;;;21.30;92.80;;;;;;4938227;28;20454;-85
2021/10/03 06:05:22;;;;;;;7.47;3.90;;;21.20;93.00;;;;;;4961024;28;20452;-87
2021/10/03 06:07:48;;;;;;;5.60;3.87;;;21.10;93.20;;;;;;4934233;28;20444;-87
2021/10/03 06:10:15;;;;;;;5.23;4.20;;;21.10;93.10;;;;;;4926941;28;20467;-85
2021/10/03 06:12:42;;;;;;;6.43;4.10;;;21.10;93.00;;;;;;4933890;28;20454;-85
2021/10/03 06:15:09;;;;;;;6.43;4.27;;;21.20;92.90;;;;;;4933339;28;21051;-85
2021/10/03 06:17:37;;;;;;;6.60;4.10;;;21.20;92.90;;;;;;4953028;28;20995;-84
2021/10/03 06:20:06;;;;;;;3.97;3.47;;;21.20;93.00;;;;;;4934983;28;20543;-86
2021/10/03 06:22:33;;;;;;;5.63;4.57;;;21.20;92.90;;;;;;4953280;28;20460;-86
2021/10/03 06:24:59;;;;;;;4.50;4.10;;;21.20;92.90;;;;;;4939773;28;20445;-85
2021/10/03 06:27:26;;;;;;;4.10;3.70;;;21.20;92.80;;;;;;4936896;28;20469;-85
2021/10/03 06:29:54;;;;;;;4.83;3.67;;;21.20;92.70;;;;;;4932343;28;20486;-85
2021/10/03 06:32:21;;;;;;;4.33;4.03;;;21.30;92.80;;;;;;4943874;28;20481;-84
2021/10/03 06:34:49;;;;;;;4.53;4.10;;;21.20;92.80;;;;;;4940261;28;20463;-87
2021/10/03 06:37:17;;;;;;;4.13;3.77;;;21.30;92.80;;;;;;4943789;28;20466;-86
2021/10/03 06:39:44;;;;;;;11.43;5.13;;;21.30;92.60;;;;;;4950667;28;20475;-86
2021/10/03 06:42:11;;;;;;;4.63;3.67;;;21.20;92.60;;;;;;4971931;28;20453;-85
2021/10/03 06:44:38;;;;;;;3.93;3.63;;;21.30;92.70;;;;;;4971224;28;22109;-85
2021/10/03 06:47:08;;;;;;;3.17;2.80;;;21.30;92.50;;;;;;4953636;28;20439;-86
2021/10/03 06:49:36;;;;;;;4.00;3.50;;;21.40;92.60;;;;;;4965967;28;20541;-85
2021/10/03 06:52:03;;;;;;;6.97;4.40;;;21.40;92.60;;;;;;4944847;28;20440;-84
2021/10/03 06:54:31;;;;;;;5.90;4.00;;;21.30;92.80;;;;;;4955780;28;20530;-86
2021/10/03 06:56:58;;;;;;;5.80;3.50;;;21.40;92.50;;;;;;4959670;28;20523;-87
2021/10/03 06:59:26;;;;;;;4.13;3.60;;;21.50;92.50;;;;;;4936730;28;20540;-86
2021/10/03 07:01:53;;;;;;;3.73;3.43;;;21.50;92.30;;;;;;4952263;28;20455;-84
2021/10/03 07:04:38;;;;;;;6.33;3.50;;;21.50;92.30;;;;;;4952245;28;21003;-83
2021/10/03 07:07:17;;;;;;;2.87;2.67;;;;;;;;;;4952030;28;20473;-85
2021/10/03 07:09:44;;;;;;;4.37;3.97;;;21.60;92.10;;;;;;4961653;28;21803;-85
2021/10/03 07:12:11;;;;;;;4.30;3.90;;;21.50;92.80;;;;;;4971761;28;20443;-85
2021/10/03 07:14:47;;;;;;;4.40;4.03;;;21.50;92.50;;;;;;4954672;28;20471;-85
2021/10/03 07:17:14;;;;;;;4.23;3.70;;;21.40;92.70;;;;;;4954292;28;20450;-86
2021/10/03 07:19:41;;;;;;;5.33;3.60;;;21.50;92.50;;;;;;5210697;22;20517;-85
2021/10/03 07:22:08;;;;;;;7.90;4.07;;;21.50;92.50;;;;;;4954270;28;20489;-86
2021/10/03 07:24:36;;;;;;;3.93;3.63;;;21.40;92.50;;;;;;4974795;28;20568;-85
2021/10/03 07:27:04;;;;;;;4.40;4.00;;;21.40;92.80;;;;;;4974799;28;20442;-85
2021/10/03 07:29:32;;;;;;;3.40;3.10;;;21.40;93.00;;;;;;4964973;28;20474;-86
2021/10/03 07:31:59;;;;;;;4.00;3.17;;;21.30;93.20;;;;;;4971688;28;20454;-87
2021/10/03 07:34:28;;;;;;;3.77;3.47;;;21.30;93.30;;;;;;4973041;28;20474;-84
2021/10/03 07:36:55;;;;;;;5.17;3.90;;;21.30;93.50;;;;;;4972374;28;20454;-84
2021/10/03 07:39:23;;;;;;;4.53;3.70;;;21.30;93.60;;;;;;4970107;28;20490;-85
2021/10/03 07:41:51;;;;;;;3.90;3.50;;;21.30;93.70;;;;;;4954664;28;20454;-86
2021/10/03 07:44:18;;;;;;;4.27;3.13;;;21.20;93.90;;;;;;4943948;28;20456;-85
2021/10/03 07:46:45;;;;;;;4.00;3.60;;;21.30;93.70;;;;;;4953166;28;20451;-87
2021/10/03 07:49:13;;;;;;;4.27;3.87;;;21.20;93.70;;;;;;4948037;28;20455;-86
2021/10/03 07:51:40;;;;;;;4.13;3.73;;;21.20;93.90;;;;;;4967466;28;20448;-85
2021/10/03 07:54:07;;;;;;;3.40;3.10;;;;;;;;;;4949067;28;20463;-86
2021/10/03 07:56:36;;;;;;;5.27;3.93;;;21.30;93.30;;;;;;4968436;28;20450;-85
2021/10/03 07:59:03;;;;;;;5.10;4.57;;;21.30;93.70;;;;;;4953358;28;20504;-85
2021/10/03 08:01:30;;;;;;;4.00;3.60;;;21.20;93.80;;;;;;4947739;28;20446;-85
2021/10/03 08:03:58;;;;;;;4.87;3.10;;;21.30;93.80;;;;;;4953792;28;20453;-85
2021/10/03 08:06:27;;;;;;;4.50;3.90;;;;;;;;;;4948963;28;20466;-87
2021/10/03 08:08:55;;;;;;;4.57;4.10;;;21.30;93.50;;;;;;4955899;28;20439;-86
2021/10/03 08:11:23;;;;;;;5.83;4.27;;;21.20;94.00;;;;;;4947906;28;20475;-86
2021/10/03 08:13:51;;;;;;;5.13;3.67;;;21.20;94.00;;;;;;4947364;28;20557;-86
2021/10/03 08:16:18;;;;;;;5.00;4.00;;;21.20;94.30;;;;;;4965414;28;20454;-87
2021/10/03 08:18:47;;;;;;;3.67;3.37;;;21.20;94.40;;;;;;4968196;28;21235;-87
2021/10/03 08:21:15;;;;;;;3.40;3.10;;;21.20;94.70;;;;;;4963396;28;20509;-85
2021/10/03 08:23:42;;;;;;;4.90;4.20;;;21.00;95.00;;;;;;4952843;28;20454;-85
2021/10/03 08:26:10;;;;;;;4.43;4.03;;;21.10;95.40;;;;;;4970667;28;20469;-86
2021/10/03 08:28:37;;;;;;;7.20;4.50;;;21.00;95.50;;;;;;4966285;28;20477;-88
2021/10/03 08:31:04;;;;;;;5.63;4.40;;;21.00;95.70;;;;;;4949364;28;22184;-84
2021/10/03 08:33:31;;;;;;;4.70;3.90;;;20.90;95.80;;;;;;4947476;28;20667;-86
2021/10/03 08:35:57;;;;;;;4.30;3.90;;;20.80;96.10;;;;;;4950559;28;20458;-83
2021/10/03 08:38:24;;;;;;;2.77;2.37;;;20.80;95.80;;;;;;4966451;28;20478;-83
2021/10/03 08:40:51;;;;;;;4.50;3.43;;;20.90;96.00;;;;;;4946806;28;20569;-85
2021/10/03 08:43:18;;;;;;;3.70;3.40;;;20.80;95.80;;;;;;4945934;28;21539;-88
2021/10/03 08:45:46;;;;;;;3.93;3.60;;;20.90;96.00;;;;;;4949231;28;21641;-85
2021/10/03 08:48:15;;;;;;;3.40;3.10;;;20.90;95.90;;;;;;4963086;28;20470;-85
2021/10/03 08:50:45;;;;;;;3.70;3.20;;;20.80;96.10;;;;;;4961477;28;21010;-85
2021/10/03 08:53:15;;;;;;;7.07;3.57;;;20.90;96.10;;;;;;4951496;28;20461;-86
2021/10/03 08:55:42;;;;;;;8.20;4.20;;;20.80;96.10;;;;;;4963201;28;20459;-85
2021/10/03 08:58:09;;;;;;;4.90;3.40;;;20.90;96.20;;;;;;4950749;28;20991;-86
2021/10/03 09:00:48;;;;;;;4.10;3.40;;;20.90;96.20;;;;;;4967561;28;20890;-88
2021/10/03 09:03:19;;;;;;;4.70;3.70;;;20.90;96.30;;;;;;4964462;28;20481;-85
2021/10/03 09:05:51;;;;;;;3.73;3.43;;;20.90;96.30;;;;;;4959828;28;20454;-88
2021/10/03 09:08:28;;;;;;;3.60;3.30;;;21.00;96.20;;;;;;4966791;28;20470;-87
2021/10/03 09:11:03;;;;;;;4.37;3.97;;;20.90;96.20;;;;;;4986274;28;20485;-87
2021/10/03 09:13:30;;;;;;;3.77;3.47;;;20.90;96.30;;;;;;4977771;28;20673;-86
2021/10/03 09:16:13;;;;;;;4.43;3.43;;;20.90;96.50;;;;;;4947340;28;20552;-86
2021/10/03 09:18:55;;;;;;;3.63;3.33;;;20.90;96.40;;;;;;4947304;28;21003;-86
2021/10/03 09:21:34;;;;;;;4.77;3.70;;;21.00;96.30;;;;;;4965854;28;20482;-84
2021/10/03 09:24:12;;;;;;;3.93;3.63;;;21.00;96.40;;;;;;4963473;28;20908;-86
2021/10/03 09:27:03;;;;;;;2.87;2.50;;;21.00;96.50;;;;;;4972446;28;20442;-87
2021/10/03 09:29:33;;;;;;;3.90;3.57;;;21.00;96.60;;;;;;4938585;28;20947;-85
2021/10/03 09:32:09;;;;;;;3.90;3.50;;;20.90;96.80;;;;;;4953356;28;20470;-85
2021/10/03 09:34:37;;;;;;;3.93;3.40;;;20.90;96.80;;;;;;4969654;28;20449;-85
2021/10/03 09:37:22;;;;;;;3.53;3.20;;;21.00;96.90;;;;;;4970099;28;20457;-85
2021/10/03 09:39:51;;;;;;;3.97;3.40;;;21.00;96.70;;;;;;4966593;28;20500;-84
2021/10/03 09:42:20;;;;;;;5.47;3.33;;;21.00;96.90;;;;;;4954224;28;20518;-85
2021/10/03 09:45:08;;;;;;;3.70;3.40;;;21.00;96.80;;;;;;4949504;28;20450;-84
2021/10/03 09:47:37;;;;;;;4.83;4.20;;;21.00;96.90;;;;;;4957057;28;20526;-83
2021/10/03 09:50:06;;;;;;;4.43;4.03;;;21.00;96.70;;;;;;4982355;28;20505;-86
2021/10/03 09:52:33;;;;;;;5.23;3.70;;;21.10;96.70;;;;;;4961368;28;20461;-87
2021/10/03 09:55:05;;;;;;;5.33;3.70;;;21.10;96.70;;;;;;4979323;28;20458;-84
2021/10/03 09:57:32;;;;;;;7.20;4.27;;;21.10;96.50;;;;;;4951249;28;20474;-85
2021/10/03 10:00:00;;;;;;;4.20;3.80;;;21.10;96.60;;;;;;4956967;28;20493;-87
2021/10/03 10:02:27;;;;;;;4.20;3.80;;;21.20;96.60;;;;;;4957069;28;20529;-85
2021/10/03 10:04:54;;;;;;;4.93;3.60;;;21.20;96.30;;;;;;4971961;28;20458;-84
2021/10/03 10:07:21;;;;;;;4.00;3.67;;;21.30;96.30;;;;;;4960428;28;20462;-86
2021/10/03 10:09:48;;;;;;;4.50;4.10;;;21.30;96.30;;;;;;4957480;28;20867;-85
2021/10/03 10:12:22;;;;;;;4.63;4.13;;;21.40;96.20;;;;;;4958675;28;21915;-84
2021/10/03 10:14:57;;;;;;;33.67;7.07;;;21.30;96.30;;;;;;4954010;28;20450;-85
2021/10/03 10:17:38;;;;;;;3.33;3.03;;;21.30;96.00;;;;;;4977068;28;20481;-85
2021/10/03 10:20:24;;;;;;;4.13;3.63;;;21.30;95.90;;;;;;4978072;28;20517;-84
2021/10/03 10:23:03;;;;;;;4.47;4.07;;;21.50;95.90;;;;;;4980962;28;21003;-84
2021/10/03 10:25:42;;;;;;;4.03;3.57;;;21.50;95.80;;;;;;4972419;28;20465;-84
2021/10/03 10:28:19;;;;;;;6.60;4.20;;;21.50;95.90;;;;;;4984928;28;20446;-85
2021/10/03 10:31:01;;;;;;;4.30;3.10;;;21.60;95.70;;;;;;4988605;28;20466;-85
2021/10/03 10:33:47;;;;;;;3.77;3.03;;;21.60;95.60;;;;;;4979274;28;20438;-85
2021/10/03 10:36:19;;;;;;;5.53;3.70;;;21.60;95.70;;;;;;4972356;28;20545;-85
2021/10/03 10:39:08;;;;;;;3.43;3.00;;;21.60;95.60;;;;;;4995822;28;20535;-86
2021/10/03 10:41:42;;;;;;;3.73;3.43;;;21.70;95.60;;;;;;4970945;28;20470;-86
2021/10/03 10:44:27;;;;;;;3.50;3.17;;;21.70;95.50;;;;;;4960691;28;20539;-86
2021/10/03 10:46:54;;;;;;;4.40;3.60;;;21.70;95.60;;;;;;4965979;28;20571;-87
2021/10/03 10:49:33;;;;;;;3.40;3.13;;;21.50;95.70;;;;;;4966936;28;20459;-86
2021/10/03 10:52:18;;;;;;;6.80;3.70;;;21.60;95.70;;;;;;4971660;28;20453;-86
2021/10/03 10:55:11;;;;;;;4.40;4.00;;;21.60;95.70;;;;;;4962588;28;20454;-84
2021/10/03 10:57:51;;;;;;;4.10;3.80;;;21.70;95.60;;;;;;4970394;28;20529;-85
2021/10/03 11:00:19;;;;;;;4.03;3.63;;;21.70;95.40;;;;;;4967077;28;20956;-86
2021/10/03 11:02:49;;;;;;;6.93;3.83;;;21.80;95.30;;;;;;4967153;28;20470;-85
2021/10/03 11:05:37;;;;;;;4.13;3.70;;;21.80;95.40;;;;;;4948868;28;20694;-84
2021/10/03 11:08:10;;;;;;;5.10;4.00;;;21.80;95.30;;;;;;4948715;28;20779;-84
2021/10/03 11:11:09;;;;;;;3.27;2.80;;;21.80;95.30;;;;;;4963642;28;20488;-86
2021/10/03 11:13:46;;;;;;;5.90;4.00;;;21.90;95.00;;;;;;4948725;28;21410;-85
2021/10/03 11:16:34;;;;;;;3.33;2.70;;;21.90;95.00;;;;;;4942743;28;20474;-84
2021/10/03 11:19:16;;;;;;;5.70;3.73;;;21.90;94.90;;;;;;4946427;28;20489;-85
2021/10/03 11:21:52;;;;;;;4.70;4.30;;;22.00;95.00;;;;;;4944781;28;20532;-82
2021/10/03 11:24:23;;;;;;;4.90;4.40;;;21.90;94.80;;;;;;4937267;28;20521;-85
2021/10/03 11:26:56;;;;;;;3.70;3.40;;;21.90;94.90;;;;;;4956649;28;20461;-86
2021/10/03 11:29:44;;;;;;;3.80;3.40;;;21.90;95.10;;;;;;4946835;28;21250;-85
2021/10/03 11:32:15;;;;;;;5.50;3.60;;;21.90;94.80;;;;;;4942564;28;20765;-85
2021/10/03 11:35:13;;;;;;;6.53;4.03;;;22.00;94.80;;;;;;4941944;28;20544;-86
2021/10/03 11:37:45;;;;;;;4.30;3.23;;;22.00;94.80;;;;;;4943126;28;20486;-86
2021/10/03 11:40:13;;;;;;;4.33;3.93;;;22.10;94.50;;;;;;4258767;28;10000786;-86
2021/10/03 11:42:51;;;;;;;8.63;3.67;;;22.10;94.30;;;;;;4936683;28;21477;-84
2021/10/03 11:45:24;;;;;;;3.50;3.20;;;22.20;94.20;;;;;;4938860;28;20462;-86
2021/10/03 11:47:56;;;;;;;6.47;4.20;;;22.30;94.00;;;;;;4958096;28;20469;-85
2021/10/03 11:50:33;;;;;;;3.93;3.53;;;22.30;94.00;;;;;;4953789;28;20478;-84
2021/10/03 11:53:20;;;;;;;3.73;3.33;;;22.30;93.90;;;;;;4942976;28;21018;-85
2021/10/03 11:55:49;;;;;;;4.87;3.37;;;22.40;93.80;;;;;;4939627;28;20449;-85
2021/10/03 11:58:22;;;;;;;6.20;4.30;;;22.40;93.80;;;;;;4940326;28;20457;-85
2021/10/03 12:01:03;;;;;;;5.30;3.40;;;22.40;93.60;;;;;;4954186;28;20494;-84
2021/10/03 12:03:32;;;;;;;3.33;3.10;;;22.40;93.60;;;;;;4940128;28;20454;-87
2021/10/03 12:06:15;;;;;;;3.67;3.37;;;22.50;93.50;;;;;;4962331;28;20469;-84
2021/10/03 12:08:42;;;;;;;3.90;3.20;;;22.40;93.50;;;;;;4959867;28;20473;-84
2021/10/03 12:11:09;;;;;;;3.93;3.63;;;22.40;93.70;;;;;;4960275;28;20520;-86
2021/10/03 12:13:36;;;;;;;3.67;3.37;;;22.50;93.50;;;;;;4943104;28;20446;-86
2021/10/03 12:16:06;;;;;;;3.63;3.30;;;22.40;93.40;;;;;;4962474;28;20461;-87
2021/10/03 12:18:41;;;;;;;4.33;3.77;;;22.40;93.40;;;;;;4940619;28;20512;-86
2021/10/03 12:21:24;;;;;;;3.37;3.07;;;22.40;93.70;;;;;;4955581;28;20574;-85
2021/10/03 12:23:53;;;;;;;4.27;3.33;;;22.40;93.30;;;;;;4944249;28;20477;-84
2021/10/03 12:26:26;;;;;;;4.33;3.70;;;22.50;93.50;;;;;;4939157;28;20458;-85
2021/10/03 12:29:00;;;;;;;3.60;3.30;;;22.50;93.40;;;;;;4941857;28;20458;-83
2021/10/03 12:31:44;;;;;;;3.83;3.53;;;22.50;93.20;;;;;;4966646;28;20466;-83
2021/10/03 12:34:14;;;;;;;3.40;3.10;;;22.40;93.30;;;;;;4940771;28;20462;-86
2021/10/03 12:37:12;;;;;;;4.30;3.20;;;22.50;93.30;;;;;;4951582;28;20458;-84
2021/10/03 12:39:45;;;;;;;4.00;2.93;;;22.50;93.00;;;;;;4940258;28;20477;-86
2021/10/03 12:42:17;;;;;;;2.50;2.30;;;22.50;93.10;;;;;;4955431;28;20450;-86
2021/10/03 12:44:46;;;;;;;4.47;3.10;;;22.40;93.10;;;;;;4945295;28;20458;-86
2021/10/03 12:47:15;;;;;;;4.40;2.53;;;22.50;93.10;;;;;;4942500;28;20537;-84
2021/10/03 12:49:43;;;;;;;3.70;2.77;;;22.50;93.10;;;;;;4937621;28;23226;-85
2021/10/03 12:52:11;;;;;;;2.50;2.30;;;22.40;93.10;;;;;;4952822;28;20461;-84
2021/10/03 12:54:39;;;;;;;3.73;2.87;;;22.40;93.20;;;;;;4935818;28;20964;-86
2021/10/03 12:57:06;;;;;;;3.10;2.80;;;22.40;93.20;;;;;;4960941;28;20453;-83
2021/10/03 12:59:33;;;;;;;3.30;2.70;;;22.40;93.20;;;;;;4936240;28;20497;-85
2021/10/03 13:02:01;;;;;;;2.70;2.50;;;22.40;93.20;;;;;;4940070;28;20474;-85
2021/10/03 13:04:28;;;;;;;2.77;2.50;;;22.40;93.40;;;;;;4957584;28;20948;-84